Time;durP1;ratioP1;P1;durP2;ratioP2;P2;SDS_P1;SDS_P2;PMS_P1;PMS_P2;Temp;Humidity;BMP_temperature;BMP_pressure;BME280_temperature;BME280_humidity;BME280_pressure;Samples;Min_cycle;Max_cycle;Signal;HPM_P1;HPM_P2
2022/01/07 00:05:03;;;;;;;15.13;9.05;;;20.10;66.40;;;;;;10541742;28;20044;-64
2022/01/07 00:10:11;;;;;;;17.85;9.77;;;20.00;66.30;;;;;;10578345;28;20040;-64
2022/01/07 00:15:23;;;;;;;15.05;9.05;;;20.00;66.30;;;;;;10579740;28;20093;-65
2022/01/07 00:21:27;;;;;;;16.20;9.07;;;20.00;66.30;;;;;;10582940;28;20047;-64
2022/01/07 00:34:26;;;;;;;14.82;8.73;;;20.10;66.20;;;;;;10635943;27;20038;-64
2022/01/07 00:39:34;;;;;;;13.93;7.75;;;20.20;66.10;;;;;;10624365;27;20047;-64
2022/01/07 00:44:58;;;;;;;15.27;8.10;;;20.30;66.20;;;;;;10624463;27;20047;-65
2022/01/07 00:50:08;;;;;;;13.95;7.80;;;20.20;66.20;;;;;;10624747;27;20043;-65
2022/01/07 00:55:13;;;;;;;14.95;7.75;;;20.20;66.10;;;;;;10620327;27;20043;-64
2022/01/07 01:00:21;;;;;;;12.68;7.22;;;20.20;66.10;;;;;;10624572;27;20043;-65
2022/01/07 01:05:37;;;;;;;12.38;7.35;;;20.30;66.00;;;;;;10624348;27;20043;-64
2022/01/07 01:10:55;;;;;;;12.05;6.95;;;20.30;66.00;;;;;;10606517;27;20120;-64
2022/01/07 01:16:02;;;;;;;13.15;7.35;;;20.40;66.00;;;;;;10602752;27;20047;-65
2022/01/07 01:21:08;;;;;;;10.23;6.22;;;20.40;66.00;;;;;;10582554;28;20055;-64
2022/01/07 01:26:22;;;;;;;11.27;6.50;;;20.40;66.00;;;;;;10581845;28;20052;-64
2022/01/07 01:31:37;;;;;;;;;;;20.40;66.00;;;;;;10557090;28;20052;-64
2022/01/07 01:36:45;;;;;;;9.52;5.80;;;20.30;65.80;;;;;;10568446;28;19919;-64
2022/01/07 01:42:03;;;;;;;12.48;6.30;;;20.40;65.90;;;;;;10581767;28;20035;-64
2022/01/07 01:47:12;;;;;;;10.32;6.57;;;20.40;65.80;;;;;;10576310;28;20065;-64
2022/01/07 02:07:12;;;;;;;;;;;20.40;65.90;;;;;;10405382;28;20045;-65
2022/01/07 02:12:28;;;;;;;18.08;9.50;;;20.40;65.80;;;;;;10417589;28;20432;-64
2022/01/07 02:23:23;;;;;;;18.42;9.02;;;20.40;65.90;;;;;;10378827;28;20450;-65
2022/01/07 02:28:36;;;;;;;16.98;8.38;;;20.40;65.90;;;;;;10372706;28;20086;-64
2022/01/07 02:33:43;;;;;;;15.65;8.18;;;20.40;65.90;;;;;;10375415;28;20773;-63
2022/01/07 02:38:51;;;;;;;16.30;8.23;;;20.40;65.80;;;;;;10375662;28;20150;-63
2022/01/07 02:43:57;;;;;;;22.95;9.18;;;20.40;65.70;;;;;;10521394;27;20077;-64
2022/01/07 02:49:15;;;;;;;25.02;9.45;;;20.30;65.80;;;;;;10576771;27;20061;-63
2022/01/07 02:54:25;;;;;;;20.98;9.30;;;20.30;65.80;;;;;;10576515;27;20510;-63
2022/01/07 02:59:34;;;;;;;16.70;8.00;;;20.30;65.80;;;;;;10566332;28;20112;-63
2022/01/07 03:04:39;;;;;;;23.55;9.48;;;20.20;65.80;;;;;;10585671;28;20621;-63
2022/01/07 03:09:44;;;;;;;21.15;8.73;;;20.20;65.90;;;;;;10586368;28;20446;-64
2022/01/07 03:14:54;;;;;;;22.15;9.18;;;20.00;65.90;;;;;;10587334;28;20108;-63
2022/01/07 03:20:00;;;;;;;21.90;10.00;;;20.00;66.00;;;;;;10585306;28;20048;-62
2022/01/07 03:25:06;;;;;;;19.83;9.02;;;20.00;66.00;;;;;;10586135;28;20044;-63
2022/01/07 03:30:14;;;;;;;21.05;9.25;;;19.90;66.00;;;;;;10539066;28;20550;-64
2022/01/07 03:35:22;;;;;;;17.48;9.15;;;19.90;66.10;;;;;;10543692;28;20374;-62
2022/01/07 03:40:27;;;;;;;21.75;8.95;;;19.80;66.00;;;;;;10542875;28;20044;-63
2022/01/07 03:45:33;;;;;;;18.63;9.18;;;19.80;66.20;;;;;;10542567;28;20074;-63
2022/01/07 03:50:38;;;;;;;36.33;9.75;;;19.70;66.10;;;;;;10543425;28;20036;-63
2022/01/07 03:55:46;;;;;;;21.13;9.18;;;19.70;66.20;;;;;;10542219;28;20048;-63
2022/01/07 04:00:52;;;;;;;23.95;9.23;;;19.70;66.30;;;;;;10542100;28;20462;-63
2022/01/07 04:05:57;;;;;;;24.77;10.07;;;19.70;66.20;;;;;;10542462;28;20488;-63
2022/01/07 04:11:02;;;;;;;24.75;9.43;;;19.70;66.30;;;;;;10524214;28;20562;-63
2022/01/07 04:16:10;;;;;;;20.48;9.02;;;19.70;66.10;;;;;;10541937;28;20502;-63
2022/01/07 04:21:21;;;;;;;18.38;8.65;;;19.70;66.00;;;;;;10533522;28;20393;-63
2022/01/07 04:26:29;;;;;;;24.42;9.23;;;19.70;65.90;;;;;;10541157;28;20511;-63
2022/01/07 04:31:35;;;;;;;20.75;8.98;;;19.80;65.80;;;;;;10539994;28;20056;-63
2022/01/07 04:36:39;;;;;;;16.98;8.20;;;20.00;65.80;;;;;;10541111;28;20048;-63
2022/01/07 04:41:47;;;;;;;18.30;8.10;;;20.10;65.70;;;;;;10522594;28;20106;-63
2022/01/07 04:46:52;;;;;;;14.20;7.20;;;20.20;65.50;;;;;;10540753;28;20043;-62
2022/01/07 04:51:58;;;;;;;15.07;7.78;;;20.30;65.40;;;;;;10540208;28;20051;-64
2022/01/07 04:57:03;;;;;;;17.35;7.45;;;20.30;65.30;;;;;;10540507;28;20044;-63
2022/01/07 05:02:08;;;;;;;17.10;8.02;;;20.50;65.30;;;;;;10539652;28;20501;-63
2022/01/07 05:07:15;;;;;;;20.00;7.53;;;20.60;65.30;;;;;;10540027;28;20040;-63
2022/01/07 05:12:20;;;;;;;19.75;6.80;;;20.60;65.10;;;;;;10541838;28;20465;-64
2022/01/07 05:17:25;;;;;;;15.00;7.10;;;20.70;65.10;;;;;;10539332;28;20051;-64
2022/01/07 05:22:31;;;;;;;20.58;7.25;;;20.80;65.10;;;;;;10539786;28;20063;-63
2022/01/07 05:27:36;;;;;;;15.23;6.60;;;20.80;65.00;;;;;;10538785;28;20500;-63
2022/01/07 05:32:42;;;;;;;23.70;7.10;;;20.90;65.00;;;;;;10539541;28;20048;-63
2022/01/07 05:37:50;;;;;;;13.27;6.28;;;20.90;64.90;;;;;;10540195;28;20040;-63
2022/01/07 05:42:58;;;;;;;12.02;6.22;;;21.00;64.90;;;;;;10545876;28;20051;-64
2022/01/07 05:48:06;;;;;;;17.15;6.15;;;21.00;64.90;;;;;;10548318;28;20473;-63
2022/01/07 05:53:11;;;;;;;10.30;5.70;;;21.00;64.80;;;;;;10547146;28;20052;-63
2022/01/07 05:58:16;;;;;;;12.20;5.45;;;21.20;64.90;;;;;;10547913;28;20048;-63
2022/01/07 06:03:23;;;;;;;13.98;5.43;;;21.20;64.90;;;;;;10546902;28;20052;-63
2022/01/07 06:08:31;;;;;;;9.52;5.15;;;21.20;64.90;;;;;;10546424;28;20048;-63
2022/01/07 06:13:40;;;;;;;14.02;5.45;;;21.20;64.90;;;;;;10546641;28;20044;-63
2022/01/07 06:18:55;;;;;;;15.90;5.72;;;21.20;65.10;;;;;;10546770;28;20040;-63
2022/01/07 06:23:59;;;;;;;14.50;5.38;;;21.10;65.20;;;;;;10547030;28;20442;-63
2022/01/07 06:29:05;;;;;;;13.13;5.82;;;21.10;65.80;;;;;;10582383;27;20047;-63
2022/01/07 06:34:10;;;;;;;11.77;5.28;;;21.00;65.20;;;;;;10631303;27;20448;-63
2022/01/07 06:39:22;;;;;;;13.30;4.82;;;21.00;65.40;;;;;;10630118;27;20422;-63
2022/01/07 06:44:30;;;;;;;9.25;5.20;;;21.00;65.30;;;;;;10629803;27;20047;-63
2022/01/07 06:49:35;;;;;;;9.15;4.60;;;21.10;65.20;;;;;;10611878;27;20068;-63
2022/01/07 06:54:44;;;;;;;11.55;5.13;;;21.10;65.20;;;;;;10629438;27;20051;-63
2022/01/07 06:59:49;;;;;;;9.18;4.70;;;21.20;65.20;;;;;;10630109;27;20064;-63
2022/01/07 07:04:53;;;;;;;10.15;4.65;;;21.20;65.20;;;;;;10630101;27;20384;-64
2022/01/07 07:09:58;;;;;;;11.25;4.00;;;21.30;65.20;;;;;;10611402;27;20472;-62
2022/01/07 07:15:07;;;;;;;15.13;4.68;;;21.30;65.10;;;;;;10593546;27;20047;-63
2022/01/07 07:20:13;;;;;;;10.65;4.03;;;21.30;65.10;;;;;;10628689;27;20051;-63
2022/01/07 07:25:20;;;;;;;8.93;4.45;;;21.30;65.20;;;;;;10629402;27;20403;-63
2022/01/07 07:30:32;;;;;;;13.68;4.60;;;21.30;65.20;;;;;;10628934;27;20058;-63
2022/01/07 07:36:27;;;;;;;10.77;3.45;;;21.20;65.20;;;;;;10628022;27;20065;-63
2022/01/07 07:41:10;;;;;;;8.38;4.10;;;21.20;65.20;;;;;;10627517;27;20055;-63
2022/01/07 07:46:19;;;;;;;10.48;3.95;;;21.10;65.30;;;;;;10627482;27;20047;-63
2022/01/07 07:51:28;;;;;;;7.57;3.72;;;21.10;65.40;;;;;;10627343;27;20395;-63
2022/01/07 07:56:36;;;;;;;7.38;4.15;;;21.10;65.40;;;;;;10627465;27;20051;-63
2022/01/07 08:01:44;;;;;;;7.65;3.53;;;21.00;65.40;;;;;;10627070;27;20411;-63
2022/01/07 08:06:52;;;;;;;6.22;3.67;;;21.00;65.50;;;;;;10626173;27;20039;-63
2022/01/07 08:12:08;;;;;;;5.63;3.17;;;21.00;65.50;;;;;;10627055;27;20068;-61
2022/01/07 08:17:13;;;;;;;7.65;3.55;;;20.90;65.50;;;;;;10608246;27;20047;-63
2022/01/07 08:22:25;;;;;;;8.10;3.55;;;20.90;65.60;;;;;;10626706;27;20092;-62
2022/01/07 08:27:33;;;;;;;5.63;3.00;;;20.90;65.70;;;;;;10626116;27;20054;-63
2022/01/07 08:38:03;;;;;;;6.35;3.20;;;20.80;65.80;;;;;;10626619;27;20085;-62
2022/01/07 08:43:08;;;;;;;7.90;2.83;;;20.80;65.90;;;;;;10625449;27;20491;-64
2022/01/07 08:48:14;;;;;;;7.22;3.47;;;20.80;65.90;;;;;;10625573;27;20064;-63
2022/01/07 08:53:22;;;;;;;6.82;3.30;;;20.70;65.90;;;;;;10625993;27;20046;-63
2022/01/07 08:58:31;;;;;;;8.25;3.30;;;20.70;65.90;;;;;;10624909;27;20047;-63
2022/01/07 09:03:39;;;;;;;6.95;3.00;;;20.70;65.90;;;;;;10625229;27;20043;-63
2022/01/07 09:08:44;;;;;;;7.15;2.75;;;20.70;65.90;;;;;;10625325;27;20104;-63
2022/01/07 09:13:51;;;;;;;9.95;3.22;;;20.60;65.90;;;;;;10624254;27;20384;-64
2022/01/07 09:18:57;;;;;;;8.73;3.17;;;20.70;65.90;;;;;;10623790;27;20377;-63
2022/01/07 09:24:02;;;;;;;5.60;2.80;;;20.60;65.80;;;;;;10624466;27;20113;-63
2022/01/07 09:29:10;;;;;;;9.20;3.15;;;20.60;65.90;;;;;;10624944;27;20047;-63
2022/01/07 09:34:15;;;;;;;17.98;3.35;;;20.60;65.80;;;;;;10624349;28;20047;-64
2022/01/07 09:39:41;;;;;;;75.03;16.25;;;20.60;65.80;;;;;;10623658;28;20092;-64
2022/01/07 09:44:48;;;;;;;102.30;17.52;;;20.70;65.60;;;;;;10624961;28;20381;-64
2022/01/07 09:49:53;;;;;;;68.72;12.82;;;20.70;65.40;;;;;;10624047;28;20035;-66
2022/01/07 09:55:02;;;;;;;60.53;10.70;;;20.60;64.90;;;;;;10623875;28;20105;-68
2022/01/07 10:00:12;;;;;;;43.17;8.77;;;20.70;64.70;;;;;;10623183;28;20043;-67
2022/01/07 10:05:18;;;;;;;42.40;8.55;;;20.70;64.60;;;;;;10615435;28;20043;-66
2022/01/07 10:10:26;;;;;;;37.67;7.22;;;20.80;64.60;;;;;;10623522;28;20096;-64
2022/01/07 10:15:33;;;;;;;27.67;6.70;;;20.70;64.60;;;;;;10623540;28;20395;-64
2022/01/07 10:20:42;;;;;;;26.97;5.97;;;20.80;64.90;;;;;;10622748;28;20055;-64
2022/01/07 10:25:47;;;;;;;;;;;20.80;65.00;;;;;;10623805;27;20039;-62
2022/01/07 10:31:00;;;;;;;22.20;5.70;;;20.80;65.00;;;;;;10630704;27;19920;-64
2022/01/07 10:36:08;;;;;;;18.52;5.63;;;20.70;65.10;;;;;;10631020;27;20050;-63
2022/01/07 10:41:14;;;;;;;;;;;20.70;65.00;;;;;;10631260;27;20047;-64
2022/01/07 10:46:24;;;;;;;24.10;3.58;;;20.70;65.00;;;;;;10631750;27;19923;-64
2022/01/07 10:51:32;;;;;;;17.70;4.25;;;20.70;65.00;;;;;;10630547;27;20499;-63
2022/01/07 10:56:44;;;;;;;9.00;3.42;;;20.60;65.00;;;;;;10630466;27;20043;-64
2022/01/07 11:01:54;;;;;;;17.20;4.25;;;20.60;65.10;;;;;;10629956;27;20047;-64
2022/01/07 11:07:12;;;;;;;14.10;3.35;;;20.50;65.00;;;;;;10612389;27;20050;-64
2022/01/07 11:12:18;;;;;;;9.77;3.00;;;20.50;65.00;;;;;;10604014;27;20054;-64
2022/01/07 11:17:27;;;;;;;8.70;3.13;;;20.40;65.00;;;;;;10629764;27;20046;-64
2022/01/07 11:22:40;;;;;;;7.80;3.20;;;20.40;65.00;;;;;;10628456;27;20100;-64
2022/01/07 11:27:54;;;;;;;9.90;3.58;;;20.40;65.00;;;;;;10610856;27;20048;-64
2022/01/07 11:33:14;;;;;;;8.77;3.60;;;20.30;65.00;;;;;;10628592;27;20552;-64
2022/01/07 11:38:37;;;;;;;10.30;3.35;;;20.30;65.00;;;;;;10609420;27;20093;-64
2022/01/07 11:43:45;;;;;;;6.15;2.97;;;20.30;65.10;;;;;;10609620;27;20047;-64
2022/01/07 11:48:50;;;;;;;;;;;20.20;65.00;;;;;;10628454;27;20047;-63
2022/01/07 11:53:55;;;;;;;8.95;2.78;;;20.10;65.00;;;;;;10627819;27;19919;-64
2022/01/07 11:59:12;;;;;;;10.48;3.35;;;20.20;65.00;;;;;;10627640;27;20047;-64
2022/01/07 12:04:21;;;;;;;6.18;3.03;;;20.10;64.90;;;;;;10628796;27;20043;-63
2022/01/07 12:09:33;;;;;;;6.75;2.78;;;20.10;64.90;;;;;;10627212;27;20088;-64
2022/01/07 12:14:51;;;;;;;5.57;2.95;;;20.10;64.80;;;;;;10627073;27;20039;-63
2022/01/07 12:20:25;;;;;;;7.45;3.17;;;20.10;64.80;;;;;;10627014;27;20467;-63
2022/01/07 12:25:30;;;;;;;7.35;2.55;;;20.00;64.80;;;;;;10626511;27;20055;-63
2022/01/07 12:30:35;;;;;;;4.43;2.60;;;20.00;64.80;;;;;;10607227;27;20047;-63
2022/01/07 12:35:42;;;;;;;7.85;2.70;;;20.00;64.70;;;;;;10626284;27;20055;-64
2022/01/07 12:40:55;;;;;;;5.75;2.60;;;20.00;64.70;;;;;;10626291;27;20468;-63
2022/01/07 12:46:06;;;;;;;7.00;2.70;;;20.00;64.60;;;;;;10626381;27;20495;-64
2022/01/07 12:51:11;;;;;;;;;;;20.00;64.50;;;;;;10624716;27;20043;-64
2022/01/07 12:56:27;;;;;;;5.93;2.42;;;19.90;64.50;;;;;;10619546;27;19980;-64
2022/01/07 13:01:32;;;;;;;11.48;3.67;;;19.90;64.40;;;;;;10566748;27;20039;-62
2022/01/07 13:06:54;;;;;;;12.25;4.07;;;19.90;64.00;;;;;;10625341;27;20047;-63
2022/01/07 13:12:00;;;;;;;9.65;3.30;;;19.80;64.10;;;;;;10624054;27;20186;-62
2022/01/07 13:17:10;;;;;;;8.25;3.78;;;19.70;64.20;;;;;;10624221;27;20051;-62
2022/01/07 13:22:15;;;;;;;9.30;3.55;;;19.70;64.10;;;;;;10622428;27;20463;-63
2022/01/07 13:27:20;;;;;;;10.60;3.80;;;19.60;64.00;;;;;;10615845;27;20051;-63
2022/01/07 13:32:26;;;;;;;12.10;3.30;;;19.70;64.50;;;;;;10607182;28;20072;-64
2022/01/07 13:37:31;;;;;;;6.70;3.47;;;19.70;64.40;;;;;;10624007;28;20043;-64
2022/01/07 13:42:36;;;;;;;8.05;3.55;;;19.80;64.40;;;;;;10624505;28;20084;-63
2022/01/07 13:47:41;;;;;;;6.75;3.47;;;19.80;64.50;;;;;;10623306;28;20484;-62
2022/01/07 13:52:46;;;;;;;9.35;3.67;;;19.90;64.80;;;;;;10623008;28;20055;-63
2022/01/07 13:57:51;;;;;;;6.40;2.83;;;19.80;64.80;;;;;;10619071;28;20491;-63
2022/01/07 14:02:56;;;;;;;10.27;2.95;;;19.70;65.00;;;;;;10627337;27;20061;-63
2022/01/07 14:08:09;;;;;;;7.93;2.90;;;19.70;65.10;;;;;;10613456;27;20065;-62
2022/01/07 14:13:21;;;;;;;6.40;2.72;;;19.70;65.20;;;;;;10631887;27;20039;-61
2022/01/07 14:18:29;;;;;;;7.68;3.40;;;19.70;65.20;;;;;;10631833;27;20377;-62
2022/01/07 14:23:41;;;;;;;8.80;3.00;;;19.60;65.20;;;;;;10631816;27;20047;-63
2022/01/07 14:28:49;;;;;;;4.75;2.67;;;19.60;65.20;;;;;;10631596;27;20108;-61
2022/01/07 14:33:54;;;;;;;6.70;2.93;;;19.60;65.30;;;;;;10624766;27;20039;-63
2022/01/07 14:38:58;;;;;;;7.93;2.30;;;19.60;65.40;;;;;;10628237;27;20051;-63
2022/01/07 14:44:03;;;;;;;6.95;2.92;;;19.60;65.40;;;;;;10629958;27;20051;-62
2022/01/07 14:49:28;;;;;;;5.80;2.75;;;19.60;65.40;;;;;;10630433;27;20039;-63
2022/01/07 14:54:34;;;;;;;6.10;2.60;;;19.70;65.30;;;;;;10629708;27;20051;-63
2022/01/07 14:59:43;;;;;;;4.70;2.60;;;19.70;65.30;;;;;;10630245;27;20541;-63
2022/01/07 15:04:47;;;;;;;5.50;2.80;;;19.80;65.30;;;;;;10629335;27;20051;-62
2022/01/07 15:09:52;;;;;;;3.97;2.45;;;19.90;65.30;;;;;;10629098;27;20069;-63
2022/01/07 15:14:57;;;;;;;4.30;2.50;;;20.00;65.30;;;;;;10628952;27;20100;-62
2022/01/07 15:20:02;;;;;;;4.95;2.85;;;20.10;65.20;;;;;;10629453;27;20096;-62
2022/01/07 15:25:08;;;;;;;5.03;2.28;;;20.20;65.20;;;;;;10628404;27;20411;-62
2022/01/07 15:30:13;;;;;;;6.20;2.65;;;20.30;65.20;;;;;;10628843;27;20047;-62
2022/01/07 15:35:19;;;;;;;5.97;2.47;;;20.40;65.30;;;;;;10606772;27;20105;-62
2022/01/07 15:40:23;;;;;;;8.23;2.78;;;20.50;65.10;;;;;;10586353;28;20077;-63
2022/01/07 15:45:27;;;;;;;6.60;2.58;;;20.60;64.90;;;;;;10585578;28;20476;-63
2022/01/07 15:50:31;;;;;;;7.53;2.72;;;20.60;64.70;;;;;;10585204;28;20074;-62
2022/01/07 15:55:35;;;;;;;5.50;2.80;;;20.70;64.70;;;;;;10585488;28;20044;-62
2022/01/07 16:00:39;;;;;;;4.93;2.58;;;20.70;64.60;;;;;;10585117;28;20571;-62
2022/01/07 16:05:43;;;;;;;3.92;2.67;;;20.80;64.60;;;;;;10584909;28;20047;-62
2022/01/07 16:10:47;;;;;;;5.88;2.70;;;20.80;64.70;;;;;;10584872;28;20057;-63
2022/01/07 16:15:51;;;;;;;6.07;2.45;;;20.90;64.70;;;;;;10584498;28;20112;-62
2022/01/07 16:20:57;;;;;;;3.25;2.17;;;20.90;64.60;;;;;;10584313;28;20047;-63
2022/01/07 16:26:02;;;;;;;4.30;2.28;;;20.90;64.60;;;;;;10584198;28;20089;-64
2022/01/07 16:31:07;;;;;;;5.60;2.20;;;20.90;64.60;;;;;;10583163;28;20381;-63
2022/01/07 16:36:11;;;;;;;6.85;2.58;;;20.90;64.70;;;;;;10613703;27;20051;-64
2022/01/07 16:41:17;;;;;;;5.40;2.30;;;20.90;64.70;;;;;;10617108;27;20047;-64
2022/01/07 16:46:23;;;;;;;6.68;2.42;;;20.90;64.80;;;;;;10618023;27;20051;-63
2022/01/07 16:51:29;;;;;;;5.95;2.75;;;20.90;64.70;;;;;;10625645;27;20043;-64
2022/01/07 16:56:35;;;;;;;4.57;2.35;;;20.90;64.80;;;;;;10624973;27;20096;-64
2022/01/07 17:01:39;;;;;;;3.55;2.53;;;20.90;65.30;;;;;;10624836;27;20051;-63
2022/01/07 17:06:44;;;;;;;9.25;3.08;;;20.90;64.50;;;;;;10624573;27;20077;-63
2022/01/07 17:11:53;;;;;;;5.18;2.53;;;21.00;64.50;;;;;;10623805;27;20084;-63
2022/01/07 17:16:57;;;;;;;5.68;2.88;;;21.10;64.50;;;;;;10624313;27;20096;-64
2022/01/07 17:22:02;;;;;;;5.25;2.70;;;21.20;64.50;;;;;;10624722;27;20088;-63
2022/01/07 17:27:09;;;;;;;9.93;2.80;;;21.20;64.40;;;;;;10623559;27;20055;-63
2022/01/07 17:32:14;;;;;;;4.45;2.70;;;21.30;64.50;;;;;;10623776;27;20130;-64
2022/01/07 17:37:23;;;;;;;4.63;2.60;;;21.30;64.60;;;;;;10584693;28;20051;-64
2022/01/07 17:42:28;;;;;;;5.88;2.78;;;21.30;64.50;;;;;;10592845;28;20560;-64
2022/01/07 17:47:33;;;;;;;8.13;2.72;;;21.40;64.30;;;;;;10581029;28;20052;-64
2022/01/07 17:52:43;;;;;;;4.15;2.25;;;21.40;64.40;;;;;;10582280;28;20035;-64
2022/01/07 17:57:48;;;;;;;3.95;1.77;;;21.40;64.60;;;;;;10581169;28;20055;-64
2022/01/07 18:02:53;;;;;;;2.88;1.83;;;21.40;64.80;;;;;;10581816;28;20484;-66
2022/01/07 18:07:58;;;;;;;2.75;1.42;;;21.40;64.80;;;;;;10582112;28;20533;-66
2022/01/07 18:13:04;;;;;;;3.40;1.10;;;21.40;64.80;;;;;;10581034;28;20040;-65
2022/01/07 18:18:08;;;;;;;2.28;1.30;;;21.40;64.80;;;;;;10580379;28;20047;-64
2022/01/07 18:23:13;;;;;;;1.85;1.45;;;21.40;64.80;;;;;;10580945;28;20058;-65
2022/01/07 18:28:19;;;;;;;2.35;1.50;;;21.40;64.70;;;;;;10580861;28;20063;-63
2022/01/07 18:33:23;;;;;;;3.15;1.58;;;21.40;64.70;;;;;;10585007;28;20039;-63
2022/01/07 18:38:29;;;;;;;3.28;1.88;;;21.40;64.80;;;;;;10622602;28;20051;-65
2022/01/07 18:43:33;;;;;;;3.75;1.95;;;21.40;64.80;;;;;;10623109;28;20092;-64
2022/01/07 18:48:38;;;;;;;4.25;2.03;;;21.40;64.90;;;;;;10624509;27;20399;-64
2022/01/07 18:53:44;;;;;;;2.42;1.70;;;21.30;64.90;;;;;;10630418;27;20035;-65
2022/01/07 18:58:49;;;;;;;3.67;2.00;;;21.40;64.90;;;;;;10629365;27;20072;-64
2022/01/07 19:03:58;;;;;;;2.90;1.75;;;21.30;64.90;;;;;;10629396;27;20421;-64
2022/01/07 19:09:05;;;;;;;3.35;1.77;;;21.30;64.90;;;;;;10630354;27;20043;-65
2022/01/07 19:14:10;;;;;;;3.60;2.22;;;21.30;65.00;;;;;;10628923;27;20050;-64
2022/01/07 19:19:14;;;;;;;3.63;1.75;;;21.30;65.00;;;;;;10628943;27;20483;-64
2022/01/07 19:24:19;;;;;;;3.70;1.83;;;21.20;65.00;;;;;;10629411;27;20395;-65
2022/01/07 19:29:25;;;;;;;3.70;2.30;;;21.20;65.00;;;;;;10628723;27;20047;-63
2022/01/07 19:34:30;;;;;;;3.20;2.20;;;21.20;65.00;;;;;;10613489;27;20553;-65
2022/01/07 19:39:37;;;;;;;4.30;2.40;;;21.10;65.00;;;;;;10585839;28;20052;-65
2022/01/07 19:44:42;;;;;;;;;;;21.10;65.00;;;;;;10586892;28;20430;-65
2022/01/07 19:49:47;;;;;;;3.10;2.22;;;21.10;65.00;;;;;;10584551;28;20365;-65
2022/01/07 19:54:52;;;;;;;4.60;2.35;;;21.10;65.10;;;;;;10584811;28;20047;-63
2022/01/07 19:59:56;;;;;;;3.85;2.33;;;21.00;65.10;;;;;;10584631;28;20108;-65
2022/01/07 20:05:01;;;;;;;6.05;2.13;;;21.00;65.20;;;;;;10584391;28;20044;-65
2022/01/07 20:10:10;;;;;;;4.65;2.47;;;21.00;65.30;;;;;;10584452;28;20549;-65
2022/01/07 20:15:16;;;;;;;4.40;2.58;;;20.90;65.30;;;;;;10584058;28;20048;-64
2022/01/07 20:20:21;;;;;;;6.85;2.70;;;20.90;65.20;;;;;;10583797;28;20047;-62
2022/01/07 20:25:25;;;;;;;3.25;2.25;;;20.90;65.30;;;;;;10583910;28;20096;-64
2022/01/07 20:30:30;;;;;;;4.70;2.13;;;20.90;65.30;;;;;;10605681;27;20455;-65
2022/01/07 20:35:36;;;;;;;4.65;3.03;;;21.00;65.30;;;;;;10601359;27;20052;-65
2022/01/07 20:40:42;;;;;;;4.50;2.53;;;21.10;65.20;;;;;;10583955;28;20092;-67
2022/01/07 20:45:47;;;;;;;4.45;2.55;;;21.20;65.10;;;;;;10583518;28;20097;-63
2022/01/07 20:50:52;;;;;;;5.20;2.25;;;21.30;65.10;;;;;;10584078;28;20089;-66
2022/01/07 20:55:57;;;;;;;6.55;2.90;;;21.30;65.00;;;;;;10583802;28;20047;-64
2022/01/07 21:01:02;;;;;;;4.18;2.45;;;21.40;64.90;;;;;;10583401;28;20044;-64
2022/01/07 21:06:12;;;;;;;6.70;2.58;;;21.40;64.90;;;;;;10582474;28;20047;-63
2022/01/07 21:11:17;;;;;;;6.43;2.60;;;21.40;64.80;;;;;;10582122;28;20035;-63
2022/01/07 21:16:23;;;;;;;4.75;2.80;;;21.40;64.90;;;;;;10616867;27;20043;-65
2022/01/07 21:21:29;;;;;;;7.20;2.72;;;21.40;65.00;;;;;;10622746;27;20100;-65
2022/01/07 21:26:33;;;;;;;3.35;2.00;;;21.30;65.00;;;;;;10605242;27;20047;-66
2022/01/07 21:31:38;;;;;;;4.35;1.42;;;21.20;65.00;;;;;;10624093;27;20043;-65
2022/01/07 21:36:43;;;;;;;3.05;1.50;;;21.20;65.00;;;;;;10624413;28;20047;-65
2022/01/07 21:41:51;;;;;;;2.45;1.33;;;21.10;64.90;;;;;;10623869;28;20380;-65
2022/01/07 21:47:02;;;;;;;8.63;1.30;;;21.10;64.90;;;;;;10624232;28;20055;-63
2022/01/07 21:52:07;;;;;;;1.73;1.35;;;21.10;65.20;;;;;;10619439;27;20048;-64
2022/01/07 21:57:12;;;;;;;4.35;1.42;;;21.00;65.40;;;;;;10602362;28;20496;-66
2022/01/07 22:02:17;;;;;;;5.03;1.40;;;21.10;65.40;;;;;;10615495;28;20066;-66
2022/01/07 22:07:22;;;;;;;5.53;1.80;;;21.00;65.50;;;;;;10624108;28;20039;-64
2022/01/07 22:12:28;;;;;;;5.65;1.80;;;21.10;65.50;;;;;;10595112;28;20081;-66
2022/01/07 22:17:33;;;;;;;3.10;1.45;;;21.00;65.40;;;;;;10580884;28;20640;-64
2022/01/07 22:22:38;;;;;;;6.80;1.60;;;21.00;65.40;;;;;;10581715;28;20043;-65
2022/01/07 22:27:44;;;;;;;3.47;1.83;;;21.00;65.40;;;;;;10588670;28;20055;-64
2022/01/07 22:32:49;;;;;;;3.45;1.90;;;21.00;65.50;;;;;;10588538;28;20047;-64
2022/01/07 22:37:54;;;;;;;3.95;2.03;;;21.00;65.50;;;;;;10588632;28;20044;-65
2022/01/07 22:43:01;;;;;;;3.45;2.25;;;20.90;65.50;;;;;;10588186;28;20044;-65
2022/01/07 22:48:26;;;;;;;3.08;1.83;;;20.90;65.50;;;;;;10611540;27;20051;-64
2022/01/07 22:53:31;;;;;;;7.15;2.30;;;20.90;65.40;;;;;;10630005;27;20047;-64
2022/01/07 22:58:37;;;;;;;2.70;1.90;;;20.90;65.50;;;;;;10630404;27;20088;-63
2022/01/07 23:03:42;;;;;;;3.70;1.98;;;20.90;65.60;;;;;;10630567;27;20051;-64
2022/01/07 23:08:47;;;;;;;3.75;1.75;;;20.90;65.80;;;;;;10630533;27;20051;-66
2022/01/07 23:14:02;;;;;;;5.00;2.08;;;20.90;65.90;;;;;;10624794;27;20047;-64
2022/01/07 23:19:07;;;;;;;3.85;2.13;;;20.90;66.00;;;;;;10629066;27;20067;-64
2022/01/07 23:24:12;;;;;;;4.50;1.98;;;20.80;66.00;;;;;;10628254;27;20404;-63
2022/01/07 23:29:16;;;;;;;3.67;1.77;;;20.80;66.10;;;;;;10629135;27;20104;-64
2022/01/07 23:34:21;;;;;;;3.22;2.00;;;20.70;66.10;;;;;;10625943;27;20047;-64
2022/01/07 23:39:26;;;;;;;7.28;2.58;;;20.70;66.10;;;;;;10629230;27;20476;-64
2022/01/07 23:44:35;;;;;;;4.05;2.00;;;20.70;66.30;;;;;;10628359;27;20068;-64
2022/01/07 23:49:41;;;;;;;4.05;2.15;;;20.70;66.40;;;;;;10628497;27;20096;-65
2022/01/07 23:54:46;;;;;;;2.38;1.92;;;20.60;66.40;;;;;;10627813;27;20047;-64
2022/01/07 23:59:51;;;;;;;2.53;1.80;;;20.60;66.50;;;;;;10627408;27;20051;-66
